This is the latest recevied weather packets stored in our database for station/object KD9CCP. If no packets are shown the sender has not sent any weather packets the latest 1 day(s).
| Time | Temp. | Humidity | Pressure | Rain* | Wind** | Luminosity | Snow |
|---|---|---|---|---|---|---|---|
| 1777995666 | 2.78° C | 74% | 1008.1 hPa | 0 mm | 2.24 m/s, 284° | 505 W/m² | - |
| 1777995364 | 2.78° C | 74% | 1008 hPa | 0 mm | 1.34 m/s, 247° | 55 W/m² | - |
| 1777995061 | 2.78° C | 76% | 1008.3 hPa | 0 mm | 1.79 m/s, 280° | 43 W/m² | - |
| 1777994757 | 3.33° C | 75% | 1008 hPa | 0 mm | 2.68 m/s, 285° | 36 W/m² | - |
| 1777994453 | 3.33° C | 73% | 1007.9 hPa | 0 mm | 2.68 m/s, 303° | 32 W/m² | - |
| 1777994148 | 3.33° C | 72% | 1008 hPa | 0 mm | 2.24 m/s, 294° | 23 W/m² | - |
| 1777993846 | 3.89° C | 70% | 1007.8 hPa | 0 mm | 1.79 m/s, 278° | 24 W/m² | - |
| 1777993542 | 3.89° C | 70% | 1007.8 hPa | 0 mm | 2.24 m/s, 315° | 49 W/m² | - |
| 1777993238 | 3.89° C | 65% | 1007.7 hPa | 0 mm | 0.45 m/s, 351° | 42 W/m² | - |
| 1777992935 | 3.89° C | 67% | 1007.8 hPa | 0 mm | 0.45 m/s, 331° | 73 W/m² | - |
| 1777992633 | 3.89° C | 70% | 1007.8 hPa | 0 mm | 2.24 m/s, 266° | 98 W/m² | - |
| 1777992331 | 3.33° C | 68% | 1007.8 hPa | 0 mm | 1.34 m/s, 324° | 45 W/m² | - |
| 1777992028 | 3.89° C | 71% | 1007.5 hPa | 0 mm | 1.34 m/s, 239° | 34 W/m² | - |
| 1777991725 | 3.89° C | 69% | 1008 hPa | 0 mm | 0.45 m/s, 310° | 30 W/m² | - |
| 1777991422 | 3.89° C | 68% | 1007.5 hPa | 0 mm | 0.89 m/s, 331° | 30 W/m² | - |
| 1777991119 | 3.89° C | 64% | 1007.6 hPa | 0 mm | 1.34 m/s, 294° | 34 W/m² | - |
| 1777990817 | 3.89° C | 63% | 1007.7 hPa | 0 mm | 1.79 m/s, 249° | 36 W/m² | - |
| 1777990514 | 3.33° C | 64% | 1007.5 hPa | 0 mm | 0.89 m/s, 324° | 47 W/m² | - |
| 1777990210 | 3.33° C | 65% | 1007.3 hPa | 0 mm | 1.34 m/s, 310° | 50 W/m² | - |
| 1777989908 | 3.33° C | 62% | 1007.6 hPa | 0 mm | 0.45 m/s, 345° | 47 W/m² | - |
| 1777989604 | 3.33° C | 68% | 1007.3 hPa | 0 mm | 1.34 m/s, 291° | 37 W/m² | - |
| 1777989301 | 3.33° C | 67% | 1007.2 hPa | 0 mm | 1.34 m/s, 358° | 31 W/m² | - |
| 1777988997 | 3.33° C | 67% | 1007.3 hPa | 0 mm | 0.45 m/s, 345° | 35 W/m² | - |
| 1777988693 | 3.33° C | 67% | 1007.2 hPa | 0 mm | 0.45 m/s, 347° | 32 W/m² | - |
| 1777988390 | 3.33° C | 71% | 1007.3 hPa | 0 mm | 2.24 m/s, 275° | 60 W/m² | - |
* Rain latest hour (hover to see other rain measurements)
** Current wind speed in m/s (hover to see current wind gust speed)